createdAt,value
2022-10-20T00:01:15.043Z,15.90
2022-10-20T00:03:46.885Z,18.57
2022-10-20T00:06:18.133Z,17.90
2022-10-20T00:08:46.979Z,14.50
2022-10-20T00:11:19.606Z,20.25
2022-10-20T00:16:17.169Z,26.13
2022-10-20T00:18:45.748Z,20.33
2022-10-20T00:21:23.601Z,19.85
2022-10-20T00:23:51.941Z,20.00
2022-10-20T00:26:25.038Z,21.92
2022-10-20T00:28:54.447Z,22.95
2022-10-20T00:31:23.248Z,22.35
2022-10-20T00:33:51.919Z,21.23
2022-10-20T00:36:22.376Z,21.67
2022-10-20T00:38:51.273Z,18.02
2022-10-20T00:41:21.889Z,19.52
2022-10-20T00:44:24.005Z,23.25
2022-10-20T00:46:51.980Z,20.05
2022-10-20T00:49:24.772Z,18.33
2022-10-20T00:51:53.923Z,17.77
2022-10-20T00:54:25.912Z,16.50
2022-10-20T00:56:56.524Z,21.67
2022-10-20T00:59:28.488Z,17.88
2022-10-20T01:01:56.939Z,17.02
2022-10-20T01:04:26.776Z,22.48
2022-10-20T01:06:55.456Z,21.35
2022-10-20T01:09:24.140Z,22.33
2022-10-20T01:12:22.415Z,17.52
2022-10-20T01:14:56.835Z,18.60
2022-10-20T01:17:43.601Z,21.23
2022-10-20T01:20:41.240Z,21.98
2022-10-20T01:23:46.807Z,24.83
2022-10-20T01:26:52.736Z,25.35
2022-10-20T01:29:33.992Z,27.50
2022-10-20T01:32:05.530Z,25.55
2022-10-20T01:34:42.789Z,23.98
2022-10-20T01:37:47.596Z,27.88
2022-10-20T01:40:32.588Z,23.45
2022-10-20T01:43:05.466Z,24.20
2022-10-20T01:45:35.053Z,36.70
2022-10-20T01:48:06.902Z,31.92
2022-10-20T01:50:36.742Z,21.45
2022-10-20T01:53:05.411Z,21.58
2022-10-20T01:55:34.782Z,33.80
2022-10-20T01:58:12.853Z,78.50
2022-10-20T02:00:41.379Z,73.78
2022-10-20T02:03:19.164Z,115.93
2022-10-20T02:06:09.509Z,69.45
2022-10-20T02:08:46.110Z,185.38
2022-10-20T02:11:23.814Z,94.32
2022-10-20T02:13:54.424Z,146.13
2022-10-20T02:16:31.733Z,114.35
2022-10-20T02:19:01.261Z,216.73
2022-10-20T02:21:29.088Z,209.77
2022-10-20T02:24:00.853Z,328.58
2022-10-20T02:26:31.260Z,104.30
2022-10-20T02:29:02.142Z,69.38
2022-10-20T02:31:30.697Z,48.80
2022-10-20T02:33:59.353Z,45.92
2022-10-20T02:36:29.394Z,42.80
2022-10-20T02:38:58.028Z,40.92
2022-10-20T02:41:27.265Z,61.08
2022-10-20T02:43:55.163Z,29.33
2022-10-20T02:46:23.269Z,21.42
2022-10-20T02:48:51.595Z,20.55
2022-10-20T02:51:19.369Z,18.95
2022-10-20T02:53:48.063Z,21.00
2022-10-20T02:56:15.956Z,18.88
2022-10-20T02:58:44.801Z,25.83
2022-10-20T03:01:13.324Z,21.88
2022-10-20T03:03:41.781Z,20.60
2022-10-20T03:06:14.489Z,23.25
2022-10-20T03:11:10.927Z,21.08
2022-10-20T03:13:39.016Z,24.23
2022-10-20T03:16:07.431Z,22.90
2022-10-20T03:18:35.397Z,26.52
2022-10-20T03:21:03.962Z,27.88
2022-10-20T03:23:31.944Z,25.20
2022-10-20T03:26:08.302Z,27.88
2022-10-20T03:28:36.953Z,24.20
2022-10-20T03:31:04.770Z,23.60
2022-10-20T03:33:33.314Z,24.95
2022-10-20T03:36:01.350Z,29.13
2022-10-20T03:38:29.713Z,27.08
2022-10-20T03:40:57.620Z,28.38
2022-10-20T03:43:26.580Z,27.35
2022-10-20T03:46:06.150Z,24.42
2022-10-20T03:48:34.818Z,29.48
2022-10-20T03:51:03.266Z,26.30
2022-10-20T03:53:31.582Z,28.25
2022-10-20T03:56:00.066Z,26.17
2022-10-20T03:58:28.123Z,27.42
2022-10-20T04:00:56.605Z,23.10
2022-10-20T04:03:25.033Z,29.77
2022-10-20T04:05:52.857Z,28.42
2022-10-20T04:08:20.896Z,28.35
2022-10-20T04:10:48.644Z,30.92
2022-10-20T04:13:16.963Z,23.90
2022-10-20T04:15:45.031Z,26.75
2022-10-20T04:18:13.252Z,27.50
2022-10-20T04:20:44.326Z,26.60
2022-10-20T04:23:13.163Z,29.58
2022-10-20T04:25:45.853Z,25.45
2022-10-20T04:30:43.184Z,29.70
2022-10-20T04:33:11.926Z,34.17
2022-10-20T04:35:40.874Z,32.58
2022-10-20T04:38:09.156Z,36.25
2022-10-20T04:40:37.725Z,34.40
2022-10-20T04:43:06.306Z,37.40
2022-10-20T04:45:34.336Z,33.65
2022-10-20T04:48:05.506Z,37.35
2022-10-20T04:50:33.464Z,41.33
2022-10-20T04:53:08.548Z,33.80
2022-10-20T04:55:36.540Z,38.70
2022-10-20T04:58:04.958Z,34.35
2022-10-20T05:00:33.286Z,32.42
2022-10-20T05:03:01.489Z,32.47
2022-10-20T05:05:29.816Z,31.17
2022-10-20T05:07:57.796Z,28.42
2022-10-20T05:10:26.208Z,33.85
2022-10-20T05:12:54.277Z,27.60
2022-10-20T05:15:22.274Z,26.35
2022-10-20T05:17:50.813Z,28.75
2022-10-20T05:20:19.229Z,31.15
2022-10-20T05:22:47.699Z,31.10
2022-10-20T05:25:35.599Z,29.15
2022-10-20T05:28:03.859Z,30.27
2022-10-20T05:30:31.798Z,28.02
2022-10-20T05:33:00.365Z,28.25
2022-10-20T05:35:29.036Z,32.40
2022-10-20T05:37:57.684Z,28.65
2022-10-20T05:40:25.585Z,31.23
2022-10-20T05:42:55.170Z,29.15
2022-10-20T05:45:23.000Z,31.95
2022-10-20T05:47:50.970Z,32.00
2022-10-20T05:50:19.104Z,29.38
2022-10-20T05:52:47.345Z,33.65
2022-10-20T05:55:15.579Z,32.10
2022-10-20T05:57:44.275Z,31.98
2022-10-20T06:00:12.435Z,29.88
2022-10-20T06:02:40.910Z,28.25
2022-10-20T06:05:09.379Z,30.98
2022-10-20T06:07:37.241Z,28.80
2022-10-20T06:10:05.823Z,27.48
2022-10-20T06:12:36.239Z,30.52
2022-10-20T06:15:04.641Z,33.38
2022-10-20T06:17:33.111Z,33.95
2022-10-20T06:20:00.922Z,24.63
2022-10-20T06:22:29.067Z,29.10
2022-10-20T06:24:57.219Z,26.73
2022-10-20T06:27:25.820Z,25.08
2022-10-20T06:29:54.832Z,31.83
2022-10-20T06:32:23.292Z,23.98
2022-10-20T06:34:51.275Z,22.05
2022-10-20T06:37:19.551Z,23.65
2022-10-20T06:39:49.111Z,28.33
2022-10-20T06:42:17.841Z,20.15
2022-10-20T06:44:48.515Z,25.88
2022-10-20T06:47:16.630Z,21.55
2022-10-20T06:49:44.926Z,19.13
2022-10-20T06:52:13.662Z,22.10
2022-10-20T06:54:41.883Z,20.77
2022-10-20T06:57:10.865Z,25.23
2022-10-20T06:59:38.813Z,20.83
2022-10-20T07:02:07.178Z,25.00
2022-10-20T07:04:35.381Z,23.08
2022-10-20T07:07:03.943Z,20.88
2022-10-20T07:09:31.925Z,19.20
2022-10-20T07:12:00.483Z,18.17
2022-10-20T07:14:32.327Z,18.33
2022-10-20T07:17:00.737Z,26.15
2022-10-20T07:19:28.482Z,27.33
2022-10-20T07:21:56.883Z,23.33
2022-10-20T07:24:24.909Z,24.95
2022-10-20T07:26:53.647Z,20.40
2022-10-20T07:29:21.573Z,21.25
2022-10-20T07:31:50.444Z,25.70
2022-10-20T07:34:25.546Z,19.38
2022-10-20T07:36:57.283Z,21.70
2022-10-20T07:39:25.197Z,15.35
2022-10-20T07:41:54.107Z,18.67
2022-10-20T07:44:22.391Z,18.15
2022-10-20T07:46:50.635Z,17.40
2022-10-20T07:49:43.307Z,16.00
2022-10-20T07:52:06.775Z,15.80
2022-10-20T07:54:35.295Z,25.17
2022-10-20T07:57:03.214Z,20.50
2022-10-20T07:59:31.654Z,19.77
2022-10-20T08:02:00.663Z,18.38
2022-10-20T08:04:32.156Z,17.02
2022-10-20T08:07:00.944Z,18.58
2022-10-20T08:09:29.339Z,18.52
2022-10-20T08:11:57.660Z,17.60
2022-10-20T08:14:27.412Z,18.75
2022-10-20T08:22:26.409Z,21.38
2022-10-20T08:24:54.335Z,19.80
2022-10-20T08:27:22.844Z,31.52
2022-10-20T08:29:59.962Z,20.60
2022-10-20T08:32:34.464Z,24.83
2022-10-20T08:35:03.021Z,24.15
2022-10-20T08:37:32.421Z,23.55
2022-10-20T08:40:00.870Z,21.45
2022-10-20T08:42:29.592Z,24.30
2022-10-20T08:45:00.428Z,22.85
2022-10-20T08:47:35.836Z,20.75
2022-10-20T08:50:06.020Z,20.30
2022-10-20T08:52:34.892Z,16.77
2022-10-20T08:55:05.995Z,20.42
2022-10-20T08:57:36.545Z,17.23
2022-10-20T09:00:24.214Z,19.80
2022-10-20T09:02:52.671Z,16.40
2022-10-20T09:05:32.404Z,15.73
2022-10-20T09:08:01.064Z,17.95
2022-10-20T09:10:37.885Z,17.17
2022-10-20T09:13:21.255Z,16.92
2022-10-20T09:15:51.831Z,17.50
2022-10-20T09:18:20.729Z,16.33
2022-10-20T09:20:54.051Z,14.77
2022-10-20T09:23:40.682Z,19.30
2022-10-20T09:26:30.903Z,14.00
2022-10-20T09:29:14.661Z,17.77
2022-10-20T09:31:48.891Z,17.67
2022-10-20T09:34:31.970Z,17.13
2022-10-20T09:37:19.525Z,16.20
2022-10-20T09:39:50.264Z,13.98
2022-10-20T09:57:08.049Z,14.13
2022-10-20T09:59:38.652Z,12.30
2022-10-20T10:02:14.953Z,8.80
2022-10-20T10:04:47.408Z,12.38
2022-10-20T10:07:26.593Z,9.30
2022-10-20T10:10:01.326Z,18.35
2022-10-20T10:12:31.954Z,12.63
2022-10-20T10:15:26.547Z,6.97
2022-10-20T10:17:54.174Z,9.38
2022-10-20T10:20:35.396Z,4.28
2022-10-20T10:23:18.628Z,7.15
2022-10-20T10:28:33.674Z,4.90
2022-10-20T10:31:20.624Z,3.72
2022-10-20T10:34:07.456Z,2.55
2022-10-20T10:36:36.740Z,5.10
2022-10-20T10:39:06.130Z,2.60
2022-10-20T10:41:52.330Z,1.10
2022-10-20T10:44:42.102Z,1.85
2022-10-20T10:47:12.136Z,43.22
2022-10-20T10:49:44.110Z,3.80
2022-10-20T10:52:31.735Z,1.60
2022-10-20T10:55:48.883Z,2.35
2022-10-20T10:58:45.587Z,1.23
2022-10-20T11:01:22.901Z,2.75
2022-10-20T11:04:00.894Z,5.13
2022-10-20T11:06:42.651Z,2.35
2022-10-20T11:09:31.037Z,2.05
2022-10-20T11:12:26.450Z,2.22
2022-10-20T11:15:20.865Z,1.92
2022-10-20T11:18:11.239Z,2.08
2022-10-20T11:21:16.492Z,1.70
2022-10-20T11:24:05.584Z,2.03
2022-10-20T11:26:40.610Z,1.40
2022-10-20T11:29:14.970Z,1.20
2022-10-20T11:31:51.014Z,2.55
2022-10-20T11:34:27.186Z,1.13
2022-10-20T11:37:56.498Z,0.95
2022-10-20T11:40:29.110Z,2.00
2022-10-20T11:43:01.587Z,1.70
2022-10-20T11:45:54.491Z,4.27
2022-10-20T11:48:29.860Z,0.85
2022-10-20T11:51:19.354Z,0.82
2022-10-20T11:53:51.382Z,1.80
2022-10-20T11:56:24.267Z,0.80
2022-10-20T11:59:23.116Z,1.92
2022-10-20T12:02:29.492Z,3.22
2022-10-20T12:05:17.981Z,2.40
2022-10-20T12:07:54.168Z,0.57
2022-10-20T12:10:54.012Z,1.67
2022-10-20T12:13:32.767Z,3.10
2022-10-20T12:16:00.475Z,1.58
2022-10-20T12:18:33.886Z,1.95
2022-10-20T12:21:06.384Z,1.15
2022-10-20T12:24:02.957Z,2.53
2022-10-20T12:26:30.609Z,1.27
2022-10-20T12:28:57.960Z,1.52
2022-10-20T12:31:26.003Z,1.98
2022-10-20T12:33:53.517Z,3.03
2022-10-20T12:36:37.401Z,2.83
2022-10-20T12:39:20.137Z,2.20
2022-10-20T12:42:01.535Z,9.13
2022-10-20T12:44:34.558Z,2.60
2022-10-20T12:47:07.541Z,2.20
2022-10-20T12:49:41.343Z,3.50
2022-10-20T12:52:18.338Z,3.78
2022-10-20T12:54:48.601Z,3.58
2022-10-20T12:57:41.871Z,2.28
2022-10-20T13:00:22.157Z,2.85
2022-10-20T13:02:50.777Z,2.30
2022-10-20T13:05:18.644Z,4.15
2022-10-20T13:07:49.099Z,3.38
2022-10-20T13:10:27.038Z,1.42
2022-10-20T13:13:03.763Z,6.85
2022-10-20T13:15:35.765Z,5.45
2022-10-20T13:18:20.176Z,7.55
2022-10-20T13:20:53.888Z,1.80
2022-10-20T13:23:40.430Z,2.72
2022-10-20T13:26:26.214Z,2.20
2022-10-20T13:28:56.088Z,3.25
2022-10-20T13:31:36.713Z,1.80
2022-10-20T13:34:22.243Z,1.73
2022-10-20T13:37:08.628Z,5.05
2022-10-20T13:40:01.084Z,1.45
2022-10-20T13:43:05.879Z,0.85
2022-10-20T13:45:55.473Z,1.63
2022-10-20T13:48:28.950Z,1.80
2022-10-20T13:51:03.183Z,2.50
2022-10-20T13:53:37.421Z,1.15
2022-10-20T13:56:09.032Z,3.53
2022-10-20T13:58:36.370Z,1.67
2022-10-20T14:01:07.697Z,3.80
2022-10-20T14:03:43.933Z,1.45
2022-10-20T14:06:32.147Z,7.30
2022-10-20T14:09:10.114Z,2.47
2022-10-20T14:11:38.716Z,1.40
2022-10-20T14:14:06.769Z,1.02
2022-10-20T14:16:34.479Z,1.70
2022-10-20T14:19:09.553Z,5.40
2022-10-20T14:21:45.206Z,4.05
2022-10-20T14:24:35.139Z,3.63
2022-10-20T14:27:04.920Z,3.70
2022-10-20T14:29:36.680Z,3.17
2022-10-20T14:32:05.917Z,7.15
2022-10-20T14:34:37.186Z,3.72
2022-10-20T14:37:07.304Z,3.83
2022-10-20T14:39:39.989Z,2.78
2022-10-20T14:44:57.276Z,3.58
2022-10-20T14:47:27.367Z,5.57
2022-10-20T14:49:55.491Z,6.38
2022-10-20T14:52:24.521Z,9.40
2022-10-20T14:54:52.414Z,15.98
2022-10-20T14:57:20.383Z,5.85
2022-10-20T15:00:08.108Z,3.53
2022-10-20T15:02:42.585Z,3.75
2022-10-20T15:05:33.100Z,2.80
2022-10-20T15:08:15.168Z,1.95
2022-10-20T15:10:42.465Z,41.40
2022-10-20T15:13:33.289Z,19.98
2022-10-20T15:16:02.841Z,5.47
2022-10-20T15:18:30.976Z,21.90
2022-10-20T15:20:58.738Z,6.10
2022-10-20T15:23:28.553Z,4.38
2022-10-20T15:26:01.706Z,5.65
2022-10-20T15:28:48.685Z,7.95
2022-10-20T15:31:21.171Z,4.20
2022-10-20T15:33:49.432Z,3.50
2022-10-20T15:36:22.106Z,5.57
2022-10-20T15:38:50.595Z,5.22
2022-10-20T15:41:26.101Z,4.25
2022-10-20T15:43:54.155Z,8.07
2022-10-20T15:46:21.889Z,6.03
2022-10-20T15:48:50.452Z,7.97
2022-10-20T15:51:23.453Z,6.72
2022-10-20T15:53:51.495Z,7.20
2022-10-20T15:56:18.780Z,8.38
2022-10-20T15:58:46.672Z,8.55
2022-10-20T16:01:16.300Z,12.13
2022-10-20T16:03:44.301Z,9.70
2022-10-20T16:06:15.729Z,7.97
2022-10-20T16:08:44.433Z,9.73
2022-10-20T16:11:13.010Z,8.82
2022-10-20T16:13:40.689Z,8.85
2022-10-20T16:16:09.519Z,12.52
2022-10-20T16:18:37.170Z,8.13
2022-10-20T16:21:05.730Z,8.80
2022-10-20T16:23:40.606Z,16.08
2022-10-20T16:26:11.587Z,6.22
2022-10-20T16:28:39.204Z,12.88
2022-10-20T16:31:09.049Z,11.43
2022-10-20T16:33:37.054Z,10.20
2022-10-20T16:38:39.080Z,11.63
2022-10-20T16:41:10.608Z,11.85
2022-10-20T16:43:39.659Z,12.10
2022-10-20T16:46:07.891Z,11.98
2022-10-20T16:48:37.792Z,13.15
2022-10-20T16:51:07.208Z,12.07
2022-10-20T16:53:35.116Z,13.55
2022-10-20T16:56:03.296Z,10.48
2022-10-20T16:58:31.103Z,11.90
2022-10-20T17:01:01.312Z,10.88
2022-10-20T17:03:30.246Z,8.68
2022-10-20T17:06:04.090Z,31.20
2022-10-20T17:08:32.332Z,42.33
2022-10-20T17:11:02.095Z,29.85
2022-10-20T17:13:30.199Z,30.38
2022-10-20T17:16:00.766Z,30.80
2022-10-20T17:18:28.375Z,18.42
2022-10-20T17:20:56.026Z,16.42
2022-10-20T17:23:24.998Z,13.18
2022-10-20T17:25:53.313Z,20.92
2022-10-20T17:28:21.042Z,18.52
2022-10-20T17:30:48.960Z,23.02
2022-10-20T17:33:16.722Z,26.63
2022-10-20T17:35:48.285Z,26.60
2022-10-20T17:38:15.851Z,25.75
2022-10-20T17:40:43.244Z,20.42
2022-10-20T17:43:11.235Z,21.33
2022-10-20T17:45:38.734Z,27.55
2022-10-20T17:48:06.976Z,83.18
2022-10-20T17:50:34.512Z,34.15
2022-10-20T17:53:02.440Z,88.13
2022-10-20T17:55:29.811Z,36.85
2022-10-20T17:57:57.486Z,36.67
2022-10-20T18:00:37.722Z,39.42
2022-10-20T18:03:11.961Z,45.63
2022-10-20T18:05:39.475Z,54.60
2022-10-20T18:08:07.271Z,271.45
2022-10-20T18:10:34.785Z,123.20
2022-10-20T18:13:02.493Z,204.90
2022-10-20T18:15:30.216Z,449.83
2022-10-20T18:17:58.226Z,291.10
2022-10-20T18:20:29.703Z,214.65
2022-10-20T18:22:59.978Z,93.38
2022-10-20T18:25:27.625Z,60.83
2022-10-20T18:27:55.390Z,47.58
2022-10-20T18:30:23.468Z,55.17
2022-10-20T18:32:51.183Z,45.42
2022-10-20T18:37:50.258Z,45.97
2022-10-20T18:40:17.608Z,43.03
2022-10-20T18:42:45.267Z,46.22
2022-10-20T18:45:12.756Z,48.13
2022-10-20T18:47:42.071Z,52.80
2022-10-20T18:50:09.883Z,44.47
2022-10-20T18:52:37.836Z,40.13
2022-10-20T18:55:05.558Z,41.80
2022-10-20T18:57:34.907Z,42.08
2022-10-20T19:00:03.558Z,42.05
2022-10-20T19:02:32.179Z,67.03
2022-10-20T19:04:59.518Z,79.70
2022-10-20T19:07:27.196Z,73.95
2022-10-20T19:09:55.581Z,62.08
2022-10-20T19:12:23.444Z,71.53
2022-10-20T19:14:51.800Z,75.25
2022-10-20T19:17:19.501Z,200.60
2022-10-20T19:19:47.265Z,215.05
2022-10-20T19:22:14.972Z,205.85
2022-10-20T19:24:42.520Z,95.95
2022-10-20T19:27:27.216Z,70.63
2022-10-20T19:29:56.141Z,47.45
2022-10-20T19:32:24.238Z,35.50
2022-10-20T19:34:51.732Z,34.45
2022-10-20T19:37:19.555Z,32.55
2022-10-20T19:39:47.017Z,41.40
2022-10-20T19:42:15.290Z,35.20
2022-10-20T19:44:42.766Z,40.15
2022-10-20T19:47:10.580Z,56.55
2022-10-20T19:49:38.676Z,39.80
2022-10-20T19:52:08.002Z,40.22
2022-10-20T19:54:35.473Z,34.90
2022-10-20T19:57:03.236Z,36.97
2022-10-20T19:59:30.957Z,40.25
2022-10-20T20:01:58.939Z,38.55
2022-10-20T20:04:26.386Z,35.83
2022-10-20T20:06:57.246Z,39.60
2022-10-20T20:09:29.690Z,38.47
2022-10-20T20:11:57.696Z,64.40
2022-10-20T20:14:25.284Z,39.08
2022-10-20T20:16:53.053Z,36.80
2022-10-20T20:19:20.721Z,39.95
2022-10-20T20:21:48.471Z,50.75
2022-10-20T20:24:16.064Z,45.92
2022-10-20T20:26:45.141Z,44.10
2022-10-20T20:29:12.762Z,49.58
2022-10-20T20:31:40.581Z,46.92
2022-10-20T20:34:08.186Z,48.42
2022-10-20T20:36:35.948Z,48.85
2022-10-20T20:39:03.523Z,45.45
2022-10-20T20:41:31.718Z,41.53
2022-10-20T20:44:02.903Z,50.33
2022-10-20T20:46:34.249Z,49.28
2022-10-20T20:49:02.068Z,49.28
2022-10-20T20:51:33.715Z,45.17
2022-10-20T20:54:02.912Z,48.33
2022-10-20T20:56:30.960Z,43.78
2022-10-20T20:58:58.320Z,42.55
2022-10-20T21:01:27.898Z,43.30
2022-10-20T21:03:57.669Z,38.63
2022-10-20T21:06:33.458Z,42.65
2022-10-20T21:09:02.127Z,48.72
2022-10-20T21:11:29.710Z,48.95
2022-10-20T21:13:59.287Z,53.33
2022-10-20T21:16:32.927Z,58.45
2022-10-20T21:19:05.570Z,57.55
2022-10-20T21:24:02.954Z,56.10
2022-10-20T21:26:30.985Z,59.88
2022-10-20T21:28:58.639Z,55.45
2022-10-20T21:31:28.005Z,57.90
2022-10-20T21:34:01.061Z,56.85
2022-10-20T21:36:31.627Z,55.13
2022-10-20T21:38:59.814Z,57.25
2022-10-20T21:41:30.198Z,61.88
2022-10-20T21:43:58.871Z,61.17
2022-10-20T21:46:29.957Z,61.35
2022-10-20T21:49:02.459Z,55.20
2022-10-20T21:51:35.838Z,63.67
2022-10-20T21:54:06.062Z,55.17
2022-10-20T21:56:39.077Z,55.13
2022-10-20T21:59:07.156Z,58.17
2022-10-20T22:01:34.903Z,59.17
2022-10-20T22:04:02.397Z,61.90
2022-10-20T22:06:29.977Z,58.17
2022-10-20T22:08:58.696Z,57.53
2022-10-20T22:11:31.917Z,51.92
2022-10-20T22:16:29.054Z,58.83
2022-10-20T22:19:01.978Z,69.22
2022-10-20T22:21:30.348Z,66.53
2022-10-20T22:23:59.709Z,64.00
2022-10-20T22:26:28.662Z,66.80
2022-10-20T22:28:57.110Z,59.35
2022-10-20T22:31:25.274Z,63.60
2022-10-20T22:33:54.731Z,69.57
2022-10-20T22:36:22.954Z,65.88
2022-10-20T22:38:50.940Z,69.70
2022-10-20T22:41:18.896Z,59.92
2022-10-20T22:43:46.297Z,65.13
2022-10-20T22:46:15.852Z,67.03
2022-10-20T22:48:43.885Z,62.25
2022-10-20T22:51:11.601Z,62.72
2022-10-20T22:53:39.283Z,63.63
2022-10-20T22:56:18.690Z,71.43
2022-10-20T22:58:46.655Z,61.03
2022-10-20T23:01:17.583Z,67.85
2022-10-20T23:03:45.331Z,61.08
2022-10-20T23:06:18.973Z,60.17
2022-10-20T23:08:49.327Z,59.45
2022-10-20T23:11:19.199Z,60.88
2022-10-20T23:13:47.531Z,59.60
2022-10-20T23:16:15.560Z,58.95
2022-10-20T23:18:43.317Z,56.72
2022-10-20T23:21:13.081Z,57.85
2022-10-20T23:23:40.949Z,60.88
2022-10-20T23:26:09.386Z,48.85
2022-10-20T23:28:37.358Z,47.55
2022-10-20T23:31:19.775Z,51.25
2022-10-20T23:33:48.431Z,45.42
2022-10-20T23:36:16.615Z,48.25
2022-10-20T23:38:44.086Z,46.97
2022-10-20T23:41:11.589Z,44.50
2022-10-20T23:43:38.903Z,48.55
2022-10-20T23:46:06.954Z,46.08
2022-10-20T23:48:35.093Z,46.22
2022-10-20T23:51:02.851Z,47.90
2022-10-20T23:53:30.295Z,48.00
2022-10-20T23:55:57.872Z,44.63
2022-10-20T23:58:25.184Z,50.63
